sensor_id;sensor_type;location;lat;lon;timestamp;P1;durP1;ratioP1;P2;durP2;ratioP2
71937;SDS011;59810;48.800;9.086;2022-11-27T00:01:23;40.20;;;11.73;;
71937;SDS011;59810;48.800;9.086;2022-11-27T00:03:50;32.63;;;11.18;;
71937;SDS011;59810;48.800;9.086;2022-11-27T00:06:17;23.57;;;10.67;;
71937;SDS011;59810;48.800;9.086;2022-11-27T00:08:46;19.77;;;9.75;;
71937;SDS011;59810;48.800;9.086;2022-11-27T00:11:13;20.30;;;9.57;;
71937;SDS011;59810;48.800;9.086;2022-11-27T00:13:40;22.25;;;9.93;;
71937;SDS011;59810;48.800;9.086;2022-11-27T00:16:05;21.63;;;9.77;;
71937;SDS011;59810;48.800;9.086;2022-11-27T00:18:31;22.42;;;10.05;;
71937;SDS011;59810;48.800;9.086;2022-11-27T00:21:05;25.43;;;10.90;;
71937;SDS011;59810;48.800;9.086;2022-11-27T00:23:32;21.00;;;9.77;;
71937;SDS011;59810;48.800;9.086;2022-11-27T00:25:58;22.88;;;10.43;;
71937;SDS011;59810;48.800;9.086;2022-11-27T00:28:24;20.50;;;9.17;;
71937;SDS011;59810;48.800;9.086;2022-11-27T00:30:49;18.52;;;8.35;;
71937;SDS011;59810;48.800;9.086;2022-11-27T00:33:15;19.67;;;9.27;;
71937;SDS011;59810;48.800;9.086;2022-11-27T00:35:40;20.17;;;9.03;;
71937;SDS011;59810;48.800;9.086;2022-11-27T00:38:08;23.70;;;10.32;;
71937;SDS011;59810;48.800;9.086;2022-11-27T00:40:36;24.42;;;9.95;;
71937;SDS011;59810;48.800;9.086;2022-11-27T00:43:03;21.73;;;9.63;;
71937;SDS011;59810;48.800;9.086;2022-11-27T00:45:29;26.87;;;9.83;;
71937;SDS011;59810;48.800;9.086;2022-11-27T00:47:54;23.10;;;8.97;;
71937;SDS011;59810;48.800;9.086;2022-11-27T00:50:20;24.40;;;8.97;;
71937;SDS011;59810;48.800;9.086;2022-11-27T00:52:45;24.00;;;7.90;;
71937;SDS011;59810;48.800;9.086;2022-11-27T00:55:11;27.88;;;9.70;;
71937;SDS011;59810;48.800;9.086;2022-11-27T00:57:36;40.73;;;9.57;;
71937;SDS011;59810;48.800;9.086;2022-11-27T01:00:02;33.42;;;9.63;;
71937;SDS011;59810;48.800;9.086;2022-11-27T01:02:29;23.37;;;8.40;;
71937;SDS011;59810;48.800;9.086;2022-11-27T01:04:56;20.38;;;8.18;;
71937;SDS011;59810;48.800;9.086;2022-11-27T01:07:22;20.17;;;9.10;;
71937;SDS011;59810;48.800;9.086;2022-11-27T01:09:47;21.83;;;9.13;;
71937;SDS011;59810;48.800;9.086;2022-11-27T01:12:15;20.20;;;8.93;;
71937;SDS011;59810;48.800;9.086;2022-11-27T01:14:40;17.70;;;8.90;;
71937;SDS011;59810;48.800;9.086;2022-11-27T01:17:08;17.80;;;8.60;;
71937;SDS011;59810;48.800;9.086;2022-11-27T01:19:33;20.67;;;9.63;;
71937;SDS011;59810;48.800;9.086;2022-11-27T01:21:58;20.53;;;9.47;;
71937;SDS011;59810;48.800;9.086;2022-11-27T01:24:24;23.90;;;10.32;;
71937;SDS011;59810;48.800;9.086;2022-11-27T01:26:49;25.60;;;10.33;;
71937;SDS011;59810;48.800;9.086;2022-11-27T01:29:14;27.03;;;10.73;;
71937;SDS011;59810;48.800;9.086;2022-11-27T01:31:39;24.73;;;10.67;;
71937;SDS011;59810;48.800;9.086;2022-11-27T01:34:10;23.45;;;9.70;;
71937;SDS011;59810;48.800;9.086;2022-11-27T01:36:38;22.33;;;10.03;;
71937;SDS011;59810;48.800;9.086;2022-11-27T01:39:03;25.05;;;11.30;;
71937;SDS011;59810;48.800;9.086;2022-11-27T01:41:33;26.73;;;9.60;;
71937;SDS011;59810;48.800;9.086;2022-11-27T01:44:01;20.42;;;9.25;;
71937;SDS011;59810;48.800;9.086;2022-11-27T01:46:45;22.40;;;9.60;;
71937;SDS011;59810;48.800;9.086;2022-11-27T01:52:18;18.20;;;9.25;;
71937;SDS011;59810;48.800;9.086;2022-11-27T01:54:59;17.57;;;8.90;;
71937;SDS011;59810;48.800;9.086;2022-11-27T01:57:30;17.48;;;7.70;;
71937;SDS011;59810;48.800;9.086;2022-11-27T02:00:00;15.18;;;7.15;;
71937;SDS011;59810;48.800;9.086;2022-11-27T02:02:26;16.38;;;7.60;;
71937;SDS011;59810;48.800;9.086;2022-11-27T02:04:52;19.20;;;8.00;;
71937;SDS011;59810;48.800;9.086;2022-11-27T02:07:21;18.48;;;7.60;;
71937;SDS011;59810;48.800;9.086;2022-11-27T02:09:46;17.37;;;7.70;;
71937;SDS011;59810;48.800;9.086;2022-11-27T02:29:25;17.30;;;7.38;;
71937;SDS011;59810;48.800;9.086;2022-11-27T02:34:33;17.45;;;7.55;;
71937;SDS011;59810;48.800;9.086;2022-11-27T02:39:54;14.53;;;6.73;;
71937;SDS011;59810;48.800;9.086;2022-11-27T02:42:25;16.08;;;7.03;;
71937;SDS011;59810;48.800;9.086;2022-11-27T02:45:07;15.40;;;7.43;;
71937;SDS011;59810;48.800;9.086;2022-11-27T02:47:36;18.42;;;7.15;;
71937;SDS011;59810;48.800;9.086;2022-11-27T02:50:05;17.98;;;6.85;;
71937;SDS011;59810;48.800;9.086;2022-11-27T02:52:36;14.37;;;7.17;;
71937;SDS011;59810;48.800;9.086;2022-11-27T02:55:06;19.25;;;6.38;;
71937;SDS011;59810;48.800;9.086;2022-11-27T02:57:37;15.73;;;6.85;;
71937;SDS011;59810;48.800;9.086;2022-11-27T03:00:04;18.90;;;6.72;;
71937;SDS011;59810;48.800;9.086;2022-11-27T03:02:42;13.00;;;6.03;;
71937;SDS011;59810;48.800;9.086;2022-11-27T03:05:14;15.63;;;6.90;;
71937;SDS011;59810;48.800;9.086;2022-11-27T03:07:44;18.33;;;7.40;;
71937;SDS011;59810;48.800;9.086;2022-11-27T03:10:25;18.23;;;6.65;;
71937;SDS011;59810;48.800;9.086;2022-11-27T03:12:58;16.77;;;6.70;;
71937;SDS011;59810;48.800;9.086;2022-11-27T03:15:28;14.10;;;6.60;;
71937;SDS011;59810;48.800;9.086;2022-11-27T03:18:10;13.97;;;6.63;;
71937;SDS011;59810;48.800;9.086;2022-11-27T03:20:48;16.13;;;7.50;;
71937;SDS011;59810;48.800;9.086;2022-11-27T03:23:24;17.15;;;6.80;;
71937;SDS011;59810;48.800;9.086;2022-11-27T03:25:52;17.03;;;7.60;;
71937;SDS011;59810;48.800;9.086;2022-11-27T03:28:20;15.73;;;7.20;;
71937;SDS011;59810;48.800;9.086;2022-11-27T03:30:46;15.43;;;6.80;;
71937;SDS011;59810;48.800;9.086;2022-11-27T03:33:14;17.75;;;7.75;;
71937;SDS011;59810;48.800;9.086;2022-11-27T03:35:43;18.73;;;7.50;;
71937;SDS011;59810;48.800;9.086;2022-11-27T03:38:08;15.38;;;6.90;;
71937;SDS011;59810;48.800;9.086;2022-11-27T03:40:40;17.37;;;7.37;;
71937;SDS011;59810;48.800;9.086;2022-11-27T03:43:13;15.40;;;7.60;;
71937;SDS011;59810;48.800;9.086;2022-11-27T03:59:15;15.55;;;5.60;;
71937;SDS011;59810;48.800;9.086;2022-11-27T04:01:47;14.55;;;5.97;;
71937;SDS011;59810;48.800;9.086;2022-11-27T04:04:13;17.73;;;6.53;;
71937;SDS011;59810;48.800;9.086;2022-11-27T04:06:40;14.15;;;5.93;;
71937;SDS011;59810;48.800;9.086;2022-11-27T04:09:06;14.98;;;5.68;;
71937;SDS011;59810;48.800;9.086;2022-11-27T04:11:32;13.70;;;4.97;;
71937;SDS011;59810;48.800;9.086;2022-11-27T04:13:57;11.77;;;4.63;;
71937;SDS011;59810;48.800;9.086;2022-11-27T04:16:23;14.90;;;5.57;;
71937;SDS011;59810;48.800;9.086;2022-11-27T04:18:48;14.15;;;5.00;;
71937;SDS011;59810;48.800;9.086;2022-11-27T04:21:13;12.93;;;5.00;;
71937;SDS011;59810;48.800;9.086;2022-11-27T04:23:40;16.83;;;4.88;;
71937;SDS011;59810;48.800;9.086;2022-11-27T04:26:08;17.63;;;4.90;;
71937;SDS011;59810;48.800;9.086;2022-11-27T04:28:34;17.13;;;5.18;;
71937;SDS011;59810;48.800;9.086;2022-11-27T04:31:02;11.82;;;4.38;;
71937;SDS011;59810;48.800;9.086;2022-11-27T04:33:28;11.30;;;5.03;;
71937;SDS011;59810;48.800;9.086;2022-11-27T04:35:53;10.97;;;4.37;;
71937;SDS011;59810;48.800;9.086;2022-11-27T04:38:21;12.73;;;4.25;;
71937;SDS011;59810;48.800;9.086;2022-11-27T04:40:46;13.27;;;4.53;;
71937;SDS011;59810;48.800;9.086;2022-11-27T04:43:12;10.47;;;4.60;;
71937;SDS011;59810;48.800;9.086;2022-11-27T04:45:38;13.25;;;4.25;;
71937;SDS011;59810;48.800;9.086;2022-11-27T04:48:04;11.60;;;4.27;;
71937;SDS011;59810;48.800;9.086;2022-11-27T04:50:29;10.75;;;4.10;;
71937;SDS011;59810;48.800;9.086;2022-11-27T04:52:55;14.48;;;5.40;;
71937;SDS011;59810;48.800;9.086;2022-11-27T04:55:21;12.07;;;5.03;;
71937;SDS011;59810;48.800;9.086;2022-11-27T04:57:51;12.68;;;4.75;;
71937;SDS011;59810;48.800;9.086;2022-11-27T05:00:16;12.68;;;4.55;;
71937;SDS011;59810;48.800;9.086;2022-11-27T05:02:44;13.33;;;4.63;;
71937;SDS011;59810;48.800;9.086;2022-11-27T05:05:09;14.18;;;5.05;;
71937;SDS011;59810;48.800;9.086;2022-11-27T05:07:35;11.53;;;4.53;;
71937;SDS011;59810;48.800;9.086;2022-11-27T05:10:00;11.00;;;4.67;;
71937;SDS011;59810;48.800;9.086;2022-11-27T05:12:26;11.07;;;3.93;;
71937;SDS011;59810;48.800;9.086;2022-11-27T05:14:51;12.23;;;4.73;;
71937;SDS011;59810;48.800;9.086;2022-11-27T05:17:16;15.50;;;5.50;;
71937;SDS011;59810;48.800;9.086;2022-11-27T05:19:44;16.40;;;6.30;;
71937;SDS011;59810;48.800;9.086;2022-11-27T05:22:09;14.73;;;5.00;;
71937;SDS011;59810;48.800;9.086;2022-11-27T05:24:35;12.98;;;4.10;;
71937;SDS011;59810;48.800;9.086;2022-11-27T05:27:00;11.20;;;3.57;;
71937;SDS011;59810;48.800;9.086;2022-11-27T05:29:28;13.63;;;4.60;;
71937;SDS011;59810;48.800;9.086;2022-11-27T05:31:55;11.35;;;4.00;;
71937;SDS011;59810;48.800;9.086;2022-11-27T05:34:20;15.43;;;5.50;;
71937;SDS011;59810;48.800;9.086;2022-11-27T05:36:48;13.38;;;4.82;;
71937;SDS011;59810;48.800;9.086;2022-11-27T05:39:15;10.05;;;3.88;;
71937;SDS011;59810;48.800;9.086;2022-11-27T05:41:41;10.40;;;3.83;;
71937;SDS011;59810;48.800;9.086;2022-11-27T05:44:12;10.57;;;4.95;;
71937;SDS011;59810;48.800;9.086;2022-11-27T05:46:38;12.80;;;4.43;;
71937;SDS011;59810;48.800;9.086;2022-11-27T05:49:09;15.43;;;4.13;;
71937;SDS011;59810;48.800;9.086;2022-11-27T05:51:36;12.90;;;4.25;;
71937;SDS011;59810;48.800;9.086;2022-11-27T05:54:02;12.73;;;4.23;;
71937;SDS011;59810;48.800;9.086;2022-11-27T05:56:27;12.32;;;4.38;;
71937;SDS011;59810;48.800;9.086;2022-11-27T05:58:53;13.30;;;4.23;;
71937;SDS011;59810;48.800;9.086;2022-11-27T06:01:18;11.43;;;4.10;;
71937;SDS011;59810;48.800;9.086;2022-11-27T06:03:46;11.10;;;3.90;;
71937;SDS011;59810;48.800;9.086;2022-11-27T06:06:15;13.93;;;4.20;;
71937;SDS011;59810;48.800;9.086;2022-11-27T06:08:45;10.70;;;4.13;;
71937;SDS011;59810;48.800;9.086;2022-11-27T06:11:15;10.43;;;3.70;;
71937;SDS011;59810;48.800;9.086;2022-11-27T06:13:43;11.97;;;3.30;;
71937;SDS011;59810;48.800;9.086;2022-11-27T06:16:13;10.70;;;3.22;;
71937;SDS011;59810;48.800;9.086;2022-11-27T06:18:40;10.32;;;3.08;;
71937;SDS011;59810;48.800;9.086;2022-11-27T06:21:09;20.40;;;5.93;;
71937;SDS011;59810;48.800;9.086;2022-11-27T06:23:37;12.65;;;5.35;;
71937;SDS011;59810;48.800;9.086;2022-11-27T06:26:46;11.80;;;4.75;;
71937;SDS011;59810;48.800;9.086;2022-11-27T06:28:55;12.95;;;5.13;;
71937;SDS011;59810;48.800;9.086;2022-11-27T06:31:23;14.10;;;4.70;;
71937;SDS011;59810;48.800;9.086;2022-11-27T06:33:50;12.57;;;4.68;;
71937;SDS011;59810;48.800;9.086;2022-11-27T06:36:18;12.02;;;4.90;;
71937;SDS011;59810;48.800;9.086;2022-11-27T06:38:46;10.75;;;3.80;;
71937;SDS011;59810;48.800;9.086;2022-11-27T06:41:16;11.00;;;3.83;;
71937;SDS011;59810;48.800;9.086;2022-11-27T06:43:46;8.75;;;2.90;;
71937;SDS011;59810;48.800;9.086;2022-11-27T06:46:12;11.48;;;3.88;;
71937;SDS011;59810;48.800;9.086;2022-11-27T06:48:40;16.08;;;4.80;;
71937;SDS011;59810;48.800;9.086;2022-11-27T06:51:07;10.63;;;4.07;;
71937;SDS011;59810;48.800;9.086;2022-11-27T06:53:36;8.65;;;3.78;;
71937;SDS011;59810;48.800;9.086;2022-11-27T06:56:05;10.25;;;4.30;;
71937;SDS011;59810;48.800;9.086;2022-11-27T06:58:34;10.80;;;4.20;;
71937;SDS011;59810;48.800;9.086;2022-11-27T07:01:01;12.55;;;4.07;;
71937;SDS011;59810;48.800;9.086;2022-11-27T07:03:28;11.30;;;4.00;;
71937;SDS011;59810;48.800;9.086;2022-11-27T07:05:54;11.32;;;4.07;;
71937;SDS011;59810;48.800;9.086;2022-11-27T07:08:23;10.05;;;3.70;;
71937;SDS011;59810;48.800;9.086;2022-11-27T07:10:50;10.93;;;4.20;;
71937;SDS011;59810;48.800;9.086;2022-11-27T07:13:15;11.15;;;4.00;;
71937;SDS011;59810;48.800;9.086;2022-11-27T07:15:43;13.13;;;4.90;;
71937;SDS011;59810;48.800;9.086;2022-11-27T07:18:08;15.60;;;5.07;;
71937;SDS011;59810;48.800;9.086;2022-11-27T07:20:36;14.50;;;4.68;;
71937;SDS011;59810;48.800;9.086;2022-11-27T07:23:02;15.00;;;5.60;;
71937;SDS011;59810;48.800;9.086;2022-11-27T07:25:27;15.07;;;5.57;;
71937;SDS011;59810;48.800;9.086;2022-11-27T07:27:54;14.40;;;5.70;;
71937;SDS011;59810;48.800;9.086;2022-11-27T07:30:19;10.33;;;4.40;;
71937;SDS011;59810;48.800;9.086;2022-11-27T07:32:45;11.57;;;3.80;;
71937;SDS011;59810;48.800;9.086;2022-11-27T07:35:12;11.30;;;4.23;;
71937;SDS011;59810;48.800;9.086;2022-11-27T07:37:38;10.67;;;4.47;;
71937;SDS011;59810;48.800;9.086;2022-11-27T07:40:03;12.60;;;4.50;;
71937;SDS011;59810;48.800;9.086;2022-11-27T07:42:29;9.27;;;4.07;;
71937;SDS011;59810;48.800;9.086;2022-11-27T07:44:55;12.10;;;4.80;;
71937;SDS011;59810;48.800;9.086;2022-11-27T07:47:20;12.93;;;4.57;;
71937;SDS011;59810;48.800;9.086;2022-11-27T07:49:53;11.73;;;3.65;;
71937;SDS011;59810;48.800;9.086;2022-11-27T07:52:22;10.10;;;4.20;;
71937;SDS011;59810;48.800;9.086;2022-11-27T07:54:47;10.10;;;3.80;;
71937;SDS011;59810;48.800;9.086;2022-11-27T07:57:17;10.00;;;3.40;;
71937;SDS011;59810;48.800;9.086;2022-11-27T07:59:45;11.13;;;3.65;;
71937;SDS011;59810;48.800;9.086;2022-11-27T08:02:12;9.20;;;3.17;;
71937;SDS011;59810;48.800;9.086;2022-11-27T08:04:38;12.70;;;4.77;;
71937;SDS011;59810;48.800;9.086;2022-11-27T08:07:03;12.33;;;5.30;;
71937;SDS011;59810;48.800;9.086;2022-11-27T08:09:29;15.43;;;6.53;;
71937;SDS011;59810;48.800;9.086;2022-11-27T08:11:54;24.13;;;8.03;;
71937;SDS011;59810;48.800;9.086;2022-11-27T08:14:20;18.00;;;7.50;;
71937;SDS011;59810;48.800;9.086;2022-11-27T08:16:48;17.05;;;6.82;;
71937;SDS011;59810;48.800;9.086;2022-11-27T08:19:13;19.23;;;7.03;;
71937;SDS011;59810;48.800;9.086;2022-11-27T08:21:39;13.13;;;5.18;;
71937;SDS011;59810;48.800;9.086;2022-11-27T08:24:04;12.53;;;4.57;;
71937;SDS011;59810;48.800;9.086;2022-11-27T08:26:30;13.60;;;5.17;;
71937;SDS011;59810;48.800;9.086;2022-11-27T08:28:55;12.38;;;5.88;;
71937;SDS011;59810;48.800;9.086;2022-11-27T08:31:21;14.33;;;6.10;;
71937;SDS011;59810;48.800;9.086;2022-11-27T08:33:49;12.70;;;5.38;;
71937;SDS011;59810;48.800;9.086;2022-11-27T08:36:15;14.53;;;5.63;;
71937;SDS011;59810;48.800;9.086;2022-11-27T08:38:40;16.23;;;8.37;;
71937;SDS011;59810;48.800;9.086;2022-11-27T08:41:06;18.23;;;9.43;;
71937;SDS011;59810;48.800;9.086;2022-11-27T08:43:32;16.40;;;7.90;;
71937;SDS011;59810;48.800;9.086;2022-11-27T08:45:58;15.63;;;9.27;;
71937;SDS011;59810;48.800;9.086;2022-11-27T08:48:24;16.90;;;8.90;;
71937;SDS011;59810;48.800;9.086;2022-11-27T08:50:52;17.27;;;9.37;;
71937;SDS011;59810;48.800;9.086;2022-11-27T08:53:18;17.48;;;9.07;;
71937;SDS011;59810;48.800;9.086;2022-11-27T08:55:44;16.87;;;8.63;;
71937;SDS011;59810;48.800;9.086;2022-11-27T08:58:09;18.67;;;8.82;;
71937;SDS011;59810;48.800;9.086;2022-11-27T09:00:35;18.33;;;12.33;;
71937;SDS011;59810;48.800;9.086;2022-11-27T09:03:02;14.93;;;8.65;;
71937;SDS011;59810;48.800;9.086;2022-11-27T09:05:28;17.20;;;8.32;;
71937;SDS011;59810;48.800;9.086;2022-11-27T09:07:55;16.23;;;7.85;;
71937;SDS011;59810;48.800;9.086;2022-11-27T09:10:23;15.97;;;8.93;;
71937;SDS011;59810;48.800;9.086;2022-11-27T09:12:51;16.38;;;8.23;;
71937;SDS011;59810;48.800;9.086;2022-11-27T09:15:17;16.07;;;8.83;;
71937;SDS011;59810;48.800;9.086;2022-11-27T09:17:42;18.33;;;8.45;;
71937;SDS011;59810;48.800;9.086;2022-11-27T09:20:08;18.17;;;9.17;;
71937;SDS011;59810;48.800;9.086;2022-11-27T09:22:34;18.20;;;9.05;;
71937;SDS011;59810;48.800;9.086;2022-11-27T09:25:02;16.98;;;8.25;;
71937;SDS011;59810;48.800;9.086;2022-11-27T09:27:27;14.23;;;7.87;;
71937;SDS011;59810;48.800;9.086;2022-11-27T09:29:53;14.10;;;7.97;;
71937;SDS011;59810;48.800;9.086;2022-11-27T09:32:21;16.77;;;8.63;;
71937;SDS011;59810;48.800;9.086;2022-11-27T09:34:49;14.50;;;7.63;;
71937;SDS011;59810;48.800;9.086;2022-11-27T09:37:20;14.55;;;7.30;;
71937;SDS011;59810;48.800;9.086;2022-11-27T09:39:46;17.00;;;7.80;;
71937;SDS011;59810;48.800;9.086;2022-11-27T09:42:14;14.37;;;7.20;;
71937;SDS011;59810;48.800;9.086;2022-11-27T09:44:53;19.02;;;8.88;;
71937;SDS011;59810;48.800;9.086;2022-11-27T09:57:54;17.67;;;8.50;;
71937;SDS011;59810;48.800;9.086;2022-11-27T10:00:29;20.47;;;9.77;;
71937;SDS011;59810;48.800;9.086;2022-11-27T10:02:57;35.53;;;14.85;;
71937;SDS011;59810;48.800;9.086;2022-11-27T10:05:39;19.10;;;9.80;;
71937;SDS011;59810;48.800;9.086;2022-11-27T10:08:32;16.83;;;9.05;;
71937;SDS011;59810;48.800;9.086;2022-11-27T10:14:03;25.63;;;11.75;;
71937;SDS011;59810;48.800;9.086;2022-11-27T10:16:49;28.15;;;12.55;;
71937;SDS011;59810;48.800;9.086;2022-11-27T10:22:05;26.05;;;11.13;;
71937;SDS011;59810;48.800;9.086;2022-11-27T10:25:02;24.38;;;11.07;;
71937;SDS011;59810;48.800;9.086;2022-11-27T10:30:35;17.20;;;8.73;;
71937;SDS011;59810;48.800;9.086;2022-11-27T10:33:26;15.53;;;9.30;;
71937;SDS011;59810;48.800;9.086;2022-11-27T10:35:59;15.05;;;8.40;;
71937;SDS011;59810;48.800;9.086;2022-11-27T10:38:25;15.23;;;8.18;;
71937;SDS011;59810;48.800;9.086;2022-11-27T10:41:03;19.10;;;8.35;;
71937;SDS011;59810;48.800;9.086;2022-11-27T10:43:31;16.33;;;8.40;;
71937;SDS011;59810;48.800;9.086;2022-11-27T10:46:01;15.55;;;8.93;;
71937;SDS011;59810;48.800;9.086;2022-11-27T10:48:27;14.13;;;7.22;;
71937;SDS011;59810;48.800;9.086;2022-11-27T10:50:53;15.90;;;7.73;;
71937;SDS011;59810;48.800;9.086;2022-11-27T10:53:31;13.75;;;7.45;;
71937;SDS011;59810;48.800;9.086;2022-11-27T10:56:08;11.60;;;5.78;;
71937;SDS011;59810;48.800;9.086;2022-11-27T10:59:08;11.63;;;5.78;;
71937;SDS011;59810;48.800;9.086;2022-11-27T11:01:46;10.70;;;5.30;;
71937;SDS011;59810;48.800;9.086;2022-11-27T11:04:14;10.07;;;4.95;;
71937;SDS011;59810;48.800;9.086;2022-11-27T11:06:45;10.70;;;4.45;;
71937;SDS011;59810;48.800;9.086;2022-11-27T11:09:21;9.15;;;4.32;;
71937;SDS011;59810;48.800;9.086;2022-11-27T11:11:53;7.78;;;2.97;;
71937;SDS011;59810;48.800;9.086;2022-11-27T11:14:48;8.27;;;3.80;;
71937;SDS011;59810;48.800;9.086;2022-11-27T11:17:16;9.18;;;3.45;;
71937;SDS011;59810;48.800;9.086;2022-11-27T11:19:42;7.70;;;4.22;;
71937;SDS011;59810;48.800;9.086;2022-11-27T11:22:16;10.40;;;5.30;;
71937;SDS011;59810;48.800;9.086;2022-11-27T11:24:49;6.70;;;3.00;;
71937;SDS011;59810;48.800;9.086;2022-11-27T11:27:18;7.60;;;3.00;;
71937;SDS011;59810;48.800;9.086;2022-11-27T11:29:54;9.25;;;5.22;;
71937;SDS011;59810;48.800;9.086;2022-11-27T11:32:30;10.63;;;4.40;;
71937;SDS011;59810;48.800;9.086;2022-11-27T11:34:59;8.82;;;4.18;;
71937;SDS011;59810;48.800;9.086;2022-11-27T11:37:30;9.93;;;4.07;;
71937;SDS011;59810;48.800;9.086;2022-11-27T11:42:37;9.90;;;3.63;;
71937;SDS011;59810;48.800;9.086;2022-11-27T11:45:04;6.03;;;2.07;;
71937;SDS011;59810;48.800;9.086;2022-11-27T11:47:47;6.22;;;1.98;;
71937;SDS011;59810;48.800;9.086;2022-11-27T11:50:25;5.38;;;1.80;;
71937;SDS011;59810;48.800;9.086;2022-11-27T11:55:25;5.78;;;2.30;;
71937;SDS011;59810;48.800;9.086;2022-11-27T12:00:48;4.90;;;1.50;;
71937;SDS011;59810;48.800;9.086;2022-11-27T12:11:38;5.83;;;2.00;;
71937;SDS011;59810;48.800;9.086;2022-11-27T12:24:47;5.47;;;1.87;;
71937;SDS011;59810;48.800;9.086;2022-11-27T12:27:43;5.32;;;1.90;;
71937;SDS011;59810;48.800;9.086;2022-11-27T12:38:59;6.57;;;2.10;;
71937;SDS011;59810;48.800;9.086;2022-11-27T12:44:42;6.63;;;2.65;;
71937;SDS011;59810;48.800;9.086;2022-11-27T12:47:21;5.88;;;1.60;;
71937;SDS011;59810;48.800;9.086;2022-11-27T12:49:54;6.10;;;2.58;;
71937;SDS011;59810;48.800;9.086;2022-11-27T12:52:33;6.23;;;2.10;;
71937;SDS011;59810;48.800;9.086;2022-11-27T12:55:05;6.07;;;2.05;;
71937;SDS011;59810;48.800;9.086;2022-11-27T12:57:42;6.50;;;2.25;;
71937;SDS011;59810;48.800;9.086;2022-11-27T13:00:14;6.15;;;1.90;;
71937;SDS011;59810;48.800;9.086;2022-11-27T13:02:52;5.35;;;1.70;;
71937;SDS011;59810;48.800;9.086;2022-11-27T13:05:22;4.83;;;1.60;;
71937;SDS011;59810;48.800;9.086;2022-11-27T13:07:59;5.28;;;1.90;;
71937;SDS011;59810;48.800;9.086;2022-11-27T13:13:32;7.22;;;2.20;;
71937;SDS011;59810;48.800;9.086;2022-11-27T13:16:14;6.63;;;2.42;;
71937;SDS011;59810;48.800;9.086;2022-11-27T13:21:36;5.03;;;1.80;;
71937;SDS011;59810;48.800;9.086;2022-11-27T13:24:03;5.63;;;2.05;;
71937;SDS011;59810;48.800;9.086;2022-11-27T13:26:31;5.63;;;1.90;;
71937;SDS011;59810;48.800;9.086;2022-11-27T13:29:26;8.38;;;3.28;;
71937;SDS011;59810;48.800;9.086;2022-11-27T13:32:00;9.03;;;3.07;;
71937;SDS011;59810;48.800;9.086;2022-11-27T13:34:28;5.90;;;2.35;;
71937;SDS011;59810;48.800;9.086;2022-11-27T13:37:00;6.80;;;2.38;;
71937;SDS011;59810;48.800;9.086;2022-11-27T13:39:33;5.07;;;2.00;;
71937;SDS011;59810;48.800;9.086;2022-11-27T13:42:01;5.22;;;1.90;;
71937;SDS011;59810;48.800;9.086;2022-11-27T13:44:30;8.73;;;2.40;;
71937;SDS011;59810;48.800;9.086;2022-11-27T13:46:59;5.85;;;1.77;;
71937;SDS011;59810;48.800;9.086;2022-11-27T13:49:32;5.72;;;2.15;;
71937;SDS011;59810;48.800;9.086;2022-11-27T13:52:06;5.32;;;1.88;;
71937;SDS011;59810;48.800;9.086;2022-11-27T13:54:35;5.55;;;1.92;;
71937;SDS011;59810;48.800;9.086;2022-11-27T13:57:08;6.13;;;1.63;;
71937;SDS011;59810;48.800;9.086;2022-11-27T13:59:36;5.68;;;1.80;;
71937;SDS011;59810;48.800;9.086;2022-11-27T14:02:03;5.33;;;1.83;;
71937;SDS011;59810;48.800;9.086;2022-11-27T14:04:31;6.13;;;2.00;;
71937;SDS011;59810;48.800;9.086;2022-11-27T14:07:02;5.07;;;1.80;;
71937;SDS011;59810;48.800;9.086;2022-11-27T14:09:35;6.70;;;2.08;;
71937;SDS011;59810;48.800;9.086;2022-11-27T14:12:13;4.35;;;1.80;;
71937;SDS011;59810;48.800;9.086;2022-11-27T14:14:39;5.00;;;1.87;;
71937;SDS011;59810;48.800;9.086;2022-11-27T14:17:20;6.97;;;1.95;;
71937;SDS011;59810;48.800;9.086;2022-11-27T14:19:56;5.47;;;1.50;;
71937;SDS011;59810;48.800;9.086;2022-11-27T14:22:42;4.50;;;1.67;;
71937;SDS011;59810;48.800;9.086;2022-11-27T14:28:05;5.13;;;1.73;;
71937;SDS011;59810;48.800;9.086;2022-11-27T14:30:37;5.22;;;1.67;;
71937;SDS011;59810;48.800;9.086;2022-11-27T14:33:14;5.57;;;2.03;;
71937;SDS011;59810;48.800;9.086;2022-11-27T14:35:50;6.65;;;1.80;;
71937;SDS011;59810;48.800;9.086;2022-11-27T14:38:21;6.32;;;2.20;;
71937;SDS011;59810;48.800;9.086;2022-11-27T14:40:49;6.87;;;2.27;;
71937;SDS011;59810;48.800;9.086;2022-11-27T14:43:23;7.03;;;2.70;;
71937;SDS011;59810;48.800;9.086;2022-11-27T14:45:56;6.30;;;2.13;;
71937;SDS011;59810;48.800;9.086;2022-11-27T14:48:42;6.50;;;2.28;;
71937;SDS011;59810;48.800;9.086;2022-11-27T14:51:12;6.65;;;2.50;;
71937;SDS011;59810;48.800;9.086;2022-11-27T14:53:41;6.30;;;2.33;;
71937;SDS011;59810;48.800;9.086;2022-11-27T14:56:08;6.95;;;2.33;;
71937;SDS011;59810;48.800;9.086;2022-11-27T14:58:36;6.80;;;2.15;;
71937;SDS011;59810;48.800;9.086;2022-11-27T15:01:04;6.40;;;2.53;;
71937;SDS011;59810;48.800;9.086;2022-11-27T15:03:32;6.57;;;2.55;;
71937;SDS011;59810;48.800;9.086;2022-11-27T15:06:02;6.70;;;2.53;;
71937;SDS011;59810;48.800;9.086;2022-11-27T15:08:34;7.15;;;2.63;;
71937;SDS011;59810;48.800;9.086;2022-11-27T15:11:02;8.95;;;2.83;;
71937;SDS011;59810;48.800;9.086;2022-11-27T15:13:30;6.75;;;2.67;;
71937;SDS011;59810;48.800;9.086;2022-11-27T15:16:17;5.68;;;2.25;;
71937;SDS011;59810;48.800;9.086;2022-11-27T15:18:53;6.37;;;2.93;;
71937;SDS011;59810;48.800;9.086;2022-11-27T15:21:22;7.45;;;2.78;;
71937;SDS011;59810;48.800;9.086;2022-11-27T15:23:52;7.22;;;2.55;;
71937;SDS011;59810;48.800;9.086;2022-11-27T15:26:36;7.03;;;2.55;;
71937;SDS011;59810;48.800;9.086;2022-11-27T15:34:50;7.18;;;2.58;;
71937;SDS011;59810;48.800;9.086;2022-11-27T15:39:52;6.53;;;2.42;;
71937;SDS011;59810;48.800;9.086;2022-11-27T15:42:18;6.80;;;2.22;;
71937;SDS011;59810;48.800;9.086;2022-11-27T15:44:44;6.40;;;2.60;;
71937;SDS011;59810;48.800;9.086;2022-11-27T15:47:43;7.97;;;3.50;;
71937;SDS011;59810;48.800;9.086;2022-11-27T15:50:04;6.90;;;2.40;;
71937;SDS011;59810;48.800;9.086;2022-11-27T15:52:30;6.95;;;2.40;;
71937;SDS011;59810;48.800;9.086;2022-11-27T15:54:55;9.47;;;3.27;;
71937;SDS011;59810;48.800;9.086;2022-11-27T15:57:21;8.27;;;2.90;;
71937;SDS011;59810;48.800;9.086;2022-11-27T15:59:46;6.40;;;2.42;;
71937;SDS011;59810;48.800;9.086;2022-11-27T16:02:14;7.55;;;3.00;;
71937;SDS011;59810;48.800;9.086;2022-11-27T16:04:39;7.60;;;2.90;;
71937;SDS011;59810;48.800;9.086;2022-11-27T16:07:06;8.32;;;2.88;;
71937;SDS011;59810;48.800;9.086;2022-11-27T16:09:32;11.67;;;4.67;;
71937;SDS011;59810;48.800;9.086;2022-11-27T16:11:58;8.57;;;3.80;;
71937;SDS011;59810;48.800;9.086;2022-11-27T16:14:23;7.87;;;3.10;;
71937;SDS011;59810;48.800;9.086;2022-11-27T16:16:48;8.23;;;3.10;;
71937;SDS011;59810;48.800;9.086;2022-11-27T16:19:16;7.97;;;2.95;;
71937;SDS011;59810;48.800;9.086;2022-11-27T16:21:41;7.63;;;3.00;;
71937;SDS011;59810;48.800;9.086;2022-11-27T16:24:09;8.20;;;3.58;;
71937;SDS011;59810;48.800;9.086;2022-11-27T16:26:39;9.52;;;2.85;;
71937;SDS011;59810;48.800;9.086;2022-11-27T16:29:05;8.40;;;3.70;;
71937;SDS011;59810;48.800;9.086;2022-11-27T16:31:31;7.28;;;3.65;;
71937;SDS011;59810;48.800;9.086;2022-11-27T16:33:56;7.87;;;3.33;;
71937;SDS011;59810;48.800;9.086;2022-11-27T16:36:22;7.73;;;3.20;;
71937;SDS011;59810;48.800;9.086;2022-11-27T16:38:50;7.43;;;3.30;;
71937;SDS011;59810;48.800;9.086;2022-11-27T16:41:18;9.80;;;2.90;;
71937;SDS011;59810;48.800;9.086;2022-11-27T16:43:48;6.53;;;2.70;;
71937;SDS011;59810;48.800;9.086;2022-11-27T16:46:16;7.15;;;3.28;;